sensor_id;sensor_type;location;lat;lon;timestamp;pressure;altitude;pressure_sealevel;temperature;humidity
78932;BME280;68331;53.362;55.932;2023-06-14T00:00:15;100397.91;;;16.58;48.48
78932;BME280;68331;53.362;55.932;2023-06-14T00:02:42;100410.66;;;16.70;47.91
78932;BME280;68331;53.362;55.932;2023-06-14T00:05:08;100406.84;;;16.76;47.64
78932;BME280;68331;53.362;55.932;2023-06-14T00:07:41;100417.13;;;16.83;47.08
78932;BME280;68331;53.362;55.932;2023-06-14T00:10:11;100409.00;;;16.86;46.87
78932;BME280;68331;53.362;55.932;2023-06-14T00:12:38;100406.09;;;16.91;46.61
78932;BME280;68331;53.362;55.932;2023-06-14T00:15:05;100411.28;;;16.94;46.43
78932;BME280;68331;53.362;55.932;2023-06-14T00:17:31;100412.06;;;16.96;46.24
78932;BME280;68331;53.362;55.932;2023-06-14T00:19:58;100419.06;;;16.99;46.32
78932;BME280;68331;53.362;55.932;2023-06-14T00:22:24;100411.84;;;17.01;45.71
78932;BME280;68331;53.362;55.932;2023-06-14T00:24:53;100408.09;;;17.05;45.51
78932;BME280;68331;53.362;55.932;2023-06-14T00:27:19;100408.00;;;17.06;45.01
78932;BME280;68331;53.362;55.932;2023-06-14T00:29:45;100415.00;;;17.09;44.88
78932;BME280;68331;53.362;55.932;2023-06-14T00:32:11;100415.78;;;17.11;45.01
78932;BME280;68331;53.362;55.932;2023-06-14T00:34:37;100420.13;;;17.13;45.00
78932;BME280;68331;53.362;55.932;2023-06-14T00:37:03;100427.06;;;17.16;44.90
78932;BME280;68331;53.362;55.932;2023-06-14T00:39:29;100426.16;;;17.17;45.03
78932;BME280;68331;53.362;55.932;2023-06-14T00:41:55;100426.16;;;17.17;44.88
78932;BME280;68331;53.362;55.932;2023-06-14T00:44:21;100423.47;;;17.17;45.13
78932;BME280;68331;53.362;55.932;2023-06-14T00:46:48;100425.13;;;17.37;44.79
78932;BME280;68331;53.362;55.932;2023-06-14T00:49:15;100425.75;;;17.42;44.67
78932;BME280;68331;53.362;55.932;2023-06-14T00:51:42;100428.09;;;17.48;44.56
78932;BME280;68331;53.362;55.932;2023-06-14T00:54:09;100431.91;;;17.61;44.26
78932;BME280;68331;53.362;55.932;2023-06-14T00:56:36;100435.88;;;17.70;43.86
78932;BME280;68331;53.362;55.932;2023-06-14T00:59:03;100440.91;;;17.76;43.03
78932;BME280;68331;53.362;55.932;2023-06-14T01:01:32;100439.13;;;17.77;43.28
78932;BME280;68331;53.362;55.932;2023-06-14T01:04:00;100434.78;;;17.74;43.12
78932;BME280;68331;53.362;55.932;2023-06-14T01:14:55;100434.41;;;17.64;41.24
78932;BME280;68331;53.362;55.932;2023-06-14T01:17:23;100446.22;;;17.76;41.06
78932;BME280;68331;53.362;55.932;2023-06-14T01:19:51;100446.03;;;17.81;40.90
78932;BME280;68331;53.362;55.932;2023-06-14T01:22:26;100443.81;;;17.89;40.74
78932;BME280;68331;53.362;55.932;2023-06-14T01:24:54;100441.53;;;17.99;40.40
78932;BME280;68331;53.362;55.932;2023-06-14T01:27:26;100448.97;;;18.09;39.81
78932;BME280;68331;53.362;55.932;2023-06-14T01:29:55;100451.13;;;18.19;39.50
78932;BME280;68331;53.362;55.932;2023-06-14T01:32:27;100453.63;;;18.22;39.41
78932;BME280;68331;53.362;55.932;2023-06-14T01:34:53;100454.63;;;18.36;39.02
78932;BME280;68331;53.362;55.932;2023-06-14T01:37:21;100461.47;;;18.42;39.01
78932;BME280;68331;53.362;55.932;2023-06-14T01:39:48;100464.19;;;18.41;38.58
78932;BME280;68331;53.362;55.932;2023-06-14T01:42:18;100451.72;;;18.41;38.30
78932;BME280;68331;53.362;55.932;2023-06-14T01:44:46;100460.09;;;18.51;38.12
78932;BME280;68331;53.362;55.932;2023-06-14T01:47:14;100464.38;;;18.53;37.97
78932;BME280;68331;53.362;55.932;2023-06-14T01:49:40;100465.50;;;18.49;37.69
78932;BME280;68331;53.362;55.932;2023-06-14T01:52:08;100462.78;;;18.51;37.58
78932;BME280;68331;53.362;55.932;2023-06-14T01:54:35;100464.91;;;18.60;37.46
78932;BME280;68331;53.362;55.932;2023-06-14T01:57:04;100463.66;;;18.67;37.40
78932;BME280;68331;53.362;55.932;2023-06-14T01:59:31;100468.03;;;18.68;37.31
78932;BME280;68331;53.362;55.932;2023-06-14T02:01:57;100468.38;;;18.62;37.10
78932;BME280;68331;53.362;55.932;2023-06-14T02:04:23;100462.16;;;18.62;37.27
78932;BME280;68331;53.362;55.932;2023-06-14T02:06:49;100466.50;;;18.64;36.93
78932;BME280;68331;53.362;55.932;2023-06-14T02:09:17;100467.06;;;18.69;36.59
78932;BME280;68331;53.362;55.932;2023-06-14T02:11:44;100471.41;;;18.72;36.43
78932;BME280;68331;53.362;55.932;2023-06-14T02:14:10;100465.41;;;18.84;36.47
78932;BME280;68331;53.362;55.932;2023-06-14T02:16:37;100470.91;;;18.97;35.65
78932;BME280;68331;53.362;55.932;2023-06-14T02:19:07;100473.25;;;19.65;34.68
78932;BME280;68331;53.362;55.932;2023-06-14T02:21:35;100466.25;;;20.50;33.01
78932;BME280;68331;53.362;55.932;2023-06-14T02:24:01;100469.41;;;20.71;32.64
78932;BME280;68331;53.362;55.932;2023-06-14T02:26:28;100473.19;;;20.54;32.87
78932;BME280;68331;53.362;55.932;2023-06-14T02:28:54;100462.25;;;20.42;32.75
78932;BME280;68331;53.362;55.932;2023-06-14T02:31:20;100463.50;;;20.51;32.19
78932;BME280;68331;53.362;55.932;2023-06-14T02:33:48;100468.56;;;20.70;32.07
78932;BME280;68331;53.362;55.932;2023-06-14T02:36:14;100467.09;;;21.20;31.12
78932;BME280;68331;53.362;55.932;2023-06-14T02:38:40;100458.25;;;21.85;30.15
78932;BME280;68331;53.362;55.932;2023-06-14T02:41:08;100459.78;;;22.02;29.46
78932;BME280;68331;53.362;55.932;2023-06-14T02:43:35;100464.19;;;21.50;30.56
78932;BME280;68331;53.362;55.932;2023-06-14T02:46:01;100472.28;;;20.82;31.24
78932;BME280;68331;53.362;55.932;2023-06-14T02:48:28;100477.84;;;20.36;31.98
78932;BME280;68331;53.362;55.932;2023-06-14T02:50:54;100476.28;;;19.89;32.41
78932;BME280;68331;53.362;55.932;2023-06-14T02:53:20;100473.84;;;19.70;33.11
78932;BME280;68331;53.362;55.932;2023-06-14T02:55:46;100471.22;;;19.68;33.12
78932;BME280;68331;53.362;55.932;2023-06-14T02:58:13;100474.56;;;20.74;31.27
78932;BME280;68331;53.362;55.932;2023-06-14T03:00:40;100468.38;;;22.45;29.09
78932;BME280;68331;53.362;55.932;2023-06-14T03:03:07;100457.84;;;24.22;26.23
78932;BME280;68331;53.362;55.932;2023-06-14T03:05:44;100458.19;;;25.18;24.67
78932;BME280;68331;53.362;55.932;2023-06-14T03:08:18;100457.44;;;26.02;24.03
78932;BME280;68331;53.362;55.932;2023-06-14T03:10:47;100453.50;;;25.85;23.71
78932;BME280;68331;53.362;55.932;2023-06-14T03:13:14;100466.41;;;25.49;24.37
78932;BME280;68331;53.362;55.932;2023-06-14T03:15:42;100465.06;;;25.75;23.73
78932;BME280;68331;53.362;55.932;2023-06-14T03:18:09;100461.06;;;27.33;21.79
78932;BME280;68331;53.362;55.932;2023-06-14T03:20:35;100456.25;;;29.51;19.40
78932;BME280;68331;53.362;55.932;2023-06-14T03:23:02;100451.34;;;31.76;17.22
78932;BME280;68331;53.362;55.932;2023-06-14T03:25:32;100450.88;;;33.92;15.03
78932;BME280;68331;53.362;55.932;2023-06-14T03:28:02;100445.09;;;33.87;15.01
78932;BME280;68331;53.362;55.932;2023-06-14T03:30:30;100453.09;;;30.86;17.41
78932;BME280;68331;53.362;55.932;2023-06-14T03:32:57;100449.94;;;27.17;20.98
78932;BME280;68331;53.362;55.932;2023-06-14T03:35:25;100459.69;;;24.89;24.17
78932;BME280;68331;53.362;55.932;2023-06-14T03:37:52;100454.25;;;23.52;26.33
78932;BME280;68331;53.362;55.932;2023-06-14T03:40:19;100461.47;;;22.67;26.96
78932;BME280;68331;53.362;55.932;2023-06-14T03:42:56;100467.72;;;21.91;28.46
78932;BME280;68331;53.362;55.932;2023-06-14T03:45:22;100469.44;;;21.39;28.97
78932;BME280;68331;53.362;55.932;2023-06-14T03:47:48;100467.25;;;21.04;29.45
78932;BME280;68331;53.362;55.932;2023-06-14T03:50:14;100463.91;;;20.86;30.37
78932;BME280;68331;53.362;55.932;2023-06-14T03:52:40;100473.06;;;20.84;30.43
78932;BME280;68331;53.362;55.932;2023-06-14T03:55:09;100467.09;;;20.79;30.20
78932;BME280;68331;53.362;55.932;2023-06-14T03:57:37;100464.44;;;20.79;30.69
78932;BME280;68331;53.362;55.932;2023-06-14T04:00:08;100470.44;;;20.82;30.71
78932;BME280;68331;53.362;55.932;2023-06-14T04:02:39;100459.53;;;20.85;30.43
78932;BME280;68331;53.362;55.932;2023-06-14T04:05:07;100467.09;;;20.93;30.54
78932;BME280;68331;53.362;55.932;2023-06-14T04:07:36;100466.84;;;21.10;30.49
78932;BME280;68331;53.362;55.932;2023-06-14T04:10:07;100463.97;;;20.99;31.06
78932;BME280;68331;53.362;55.932;2023-06-14T04:12:33;100461.41;;;20.98;31.08
78932;BME280;68331;53.362;55.932;2023-06-14T04:15:00;100458.81;;;20.96;30.59
78932;BME280;68331;53.362;55.932;2023-06-14T04:17:29;100470.56;;;20.81;30.26
78932;BME280;68331;53.362;55.932;2023-06-14T04:19:55;100468.00;;;20.65;30.58
78932;BME280;68331;53.362;55.932;2023-06-14T04:22:25;100464.56;;;20.63;30.61
78932;BME280;68331;53.362;55.932;2023-06-14T04:24:56;100469.84;;;20.64;30.73
78932;BME280;68331;53.362;55.932;2023-06-14T04:27:26;100462.53;;;20.66;31.02
78932;BME280;68331;53.362;55.932;2023-06-14T04:29:52;100458.03;;;20.67;30.95
78932;BME280;68331;53.362;55.932;2023-06-14T04:32:33;100467.78;;;20.82;30.48
78932;BME280;68331;53.362;55.932;2023-06-14T04:35:06;100455.34;;;20.81;30.58
78932;BME280;68331;53.362;55.932;2023-06-14T04:37:34;100469.78;;;20.93;30.46
78932;BME280;68331;53.362;55.932;2023-06-14T04:40:01;100465.59;;;21.02;30.90
78932;BME280;68331;53.362;55.932;2023-06-14T04:42:27;100465.59;;;21.02;30.90
78932;BME280;68331;53.362;55.932;2023-06-14T04:44:59;100468.94;;;21.05;30.97
78932;BME280;68331;53.362;55.932;2023-06-14T04:47:25;100452.63;;;21.63;30.69
78932;BME280;68331;53.362;55.932;2023-06-14T04:49:59;100453.34;;;22.30;29.26
78932;BME280;68331;53.362;55.932;2023-06-14T04:52:29;100452.78;;;22.12;29.11
78932;BME280;68331;53.362;55.932;2023-06-14T04:54:56;100449.75;;;21.91;29.74
78932;BME280;68331;53.362;55.932;2023-06-14T04:57:23;100441.19;;;21.86;30.11
78932;BME280;68331;53.362;55.932;2023-06-14T04:59:55;100441.94;;;22.26;29.71
78932;BME280;68331;53.362;55.932;2023-06-14T05:02:22;100441.50;;;22.95;28.05
78932;BME280;68331;53.362;55.932;2023-06-14T05:04:50;100445.16;;;22.81;28.43
78932;BME280;68331;53.362;55.932;2023-06-14T05:07:16;100450.03;;;22.76;28.68
78932;BME280;68331;53.362;55.932;2023-06-14T05:09:42;100438.59;;;22.85;28.40
78932;BME280;68331;53.362;55.932;2023-06-14T05:12:08;100419.03;;;22.46;28.63
78932;BME280;68331;53.362;55.932;2023-06-14T05:14:35;100422.47;;;22.36;29.20
78932;BME280;68331;53.362;55.932;2023-06-14T05:17:01;100431.19;;;22.26;29.67
78932;BME280;68331;53.362;55.932;2023-06-14T05:19:28;100427.00;;;22.35;29.08
78932;BME280;68331;53.362;55.932;2023-06-14T05:21:54;100437.53;;;22.38;29.27
78932;BME280;68331;53.362;55.932;2023-06-14T05:24:20;100440.41;;;22.48;29.36
78932;BME280;68331;53.362;55.932;2023-06-14T05:26:46;100433.44;;;22.82;28.96
78932;BME280;68331;53.362;55.932;2023-06-14T05:29:12;100436.78;;;23.10;27.95
78932;BME280;68331;53.362;55.932;2023-06-14T05:31:38;100414.28;;;23.35;27.56
78932;BME280;68331;53.362;55.932;2023-06-14T05:34:04;100422.69;;;24.01;26.92
78932;BME280;68331;53.362;55.932;2023-06-14T05:36:30;100431.78;;;24.67;26.16
78932;BME280;68331;53.362;55.932;2023-06-14T05:38:57;100413.84;;;25.95;24.28
78932;BME280;68331;53.362;55.932;2023-06-14T05:41:29;100415.81;;;28.84;20.37
78932;BME280;68331;53.362;55.932;2023-06-14T05:43:55;100403.09;;;31.11;18.02
78932;BME280;68331;53.362;55.932;2023-06-14T05:46:22;100404.56;;;32.99;16.19
78932;BME280;68331;53.362;55.932;2023-06-14T05:48:54;100403.16;;;33.49;15.41
78932;BME280;68331;53.362;55.932;2023-06-14T05:51:21;100416.38;;;33.45;15.13
78932;BME280;68331;53.362;55.932;2023-06-14T05:53:48;100404.75;;;33.66;15.22
78932;BME280;68331;53.362;55.932;2023-06-14T05:56:15;100399.22;;;35.36;13.88
78932;BME280;68331;53.362;55.932;2023-06-14T05:58:43;100392.56;;;36.77;12.90
78932;BME280;68331;53.362;55.932;2023-06-14T06:01:10;100387.00;;;37.79;11.76
78932;BME280;68331;53.362;55.932;2023-06-14T06:03:39;100381.75;;;38.35;11.05
78932;BME280;68331;53.362;55.932;2023-06-14T06:06:05;100385.91;;;39.41;10.48
78932;BME280;68331;53.362;55.932;2023-06-14T06:08:33;100380.38;;;39.41;10.71
78932;BME280;68331;53.362;55.932;2023-06-14T06:10:59;100374.47;;;40.61;9.95
78932;BME280;68331;53.362;55.932;2023-06-14T06:13:25;100380.00;;;41.22;9.09
78932;BME280;68331;53.362;55.932;2023-06-14T06:15:55;100372.00;;;40.53;9.32
78932;BME280;68331;53.362;55.932;2023-06-14T06:18:22;100374.91;;;39.60;9.78
78932;BME280;68331;53.362;55.932;2023-06-14T06:20:47;100372.03;;;39.48;10.45
78932;BME280;68331;53.362;55.932;2023-06-14T06:23:13;100377.34;;;39.18;10.32
78932;BME280;68331;53.362;55.932;2023-06-14T06:25:40;100377.16;;;38.29;11.49
78932;BME280;68331;53.362;55.932;2023-06-14T06:28:05;100384.25;;;37.79;11.32
78932;BME280;68331;53.362;55.932;2023-06-14T06:30:31;100367.19;;;38.22;11.50
78932;BME280;68331;53.362;55.932;2023-06-14T06:32:57;100375.88;;;38.77;11.00
78932;BME280;68331;53.362;55.932;2023-06-14T06:35:24;100366.59;;;39.41;10.71
78932;BME280;68331;53.362;55.932;2023-06-14T06:37:50;100362.41;;;40.56;10.11
78932;BME280;68331;53.362;55.932;2023-06-14T06:40:16;100362.19;;;40.39;9.79
78932;BME280;68331;53.362;55.932;2023-06-14T06:42:42;100354.06;;;39.89;10.22
78932;BME280;68331;53.362;55.932;2023-06-14T06:45:11;100350.69;;;39.05;10.74
78932;BME280;68331;53.362;55.932;2023-06-14T06:47:37;100358.00;;;37.56;11.16
78932;BME280;68331;53.362;55.932;2023-06-14T06:50:03;100360.63;;;36.90;12.28
78932;BME280;68331;53.362;55.932;2023-06-14T06:52:30;100350.22;;;36.78;12.03
78932;BME280;68331;53.362;55.932;2023-06-14T06:54:56;100352.00;;;35.47;13.34
78932;BME280;68331;53.362;55.932;2023-06-14T06:57:22;100349.59;;;34.73;13.76
78932;BME280;68331;53.362;55.932;2023-06-14T06:59:49;100341.41;;;33.69;14.92
78932;BME280;68331;53.362;55.932;2023-06-14T07:02:16;100356.00;;;32.78;15.48
78932;BME280;68331;53.362;55.932;2023-06-14T07:04:42;100351.94;;;31.13;16.82
78932;BME280;68331;53.362;55.932;2023-06-14T07:07:08;100339.25;;;30.12;18.05
78932;BME280;68331;53.362;55.932;2023-06-14T07:09:35;100351.38;;;29.92;18.88
78932;BME280;68331;53.362;55.932;2023-06-14T07:12:02;100340.16;;;29.43;18.70
78932;BME280;68331;53.362;55.932;2023-06-14T07:14:28;100346.31;;;28.91;19.70
78932;BME280;68331;53.362;55.932;2023-06-14T07:16:54;100347.53;;;27.96;20.80
78932;BME280;68331;53.362;55.932;2023-06-14T07:19:20;100347.38;;;27.51;21.01
78932;BME280;68331;53.362;55.932;2023-06-14T07:21:46;100348.25;;;27.98;21.02
78932;BME280;68331;53.362;55.932;2023-06-14T07:24:12;100342.59;;;28.19;20.98
78932;BME280;68331;53.362;55.932;2023-06-14T07:26:38;100335.31;;;28.47;20.02
78932;BME280;68331;53.362;55.932;2023-06-14T07:29:04;100336.66;;;28.43;20.21
78932;BME280;68331;53.362;55.932;2023-06-14T07:31:30;100323.94;;;28.07;20.68
78932;BME280;68331;53.362;55.932;2023-06-14T07:33:56;100341.44;;;28.22;21.28
78932;BME280;68331;53.362;55.932;2023-06-14T07:36:22;100328.72;;;28.22;21.18
78932;BME280;68331;53.362;55.932;2023-06-14T07:38:48;100334.44;;;28.19;21.28
78932;BME280;68331;53.362;55.932;2023-06-14T07:41:15;100334.88;;;27.87;21.82
78932;BME280;68331;53.362;55.932;2023-06-14T07:43:41;100323.31;;;27.85;22.09
78932;BME280;68331;53.362;55.932;2023-06-14T07:46:07;100328.63;;;27.67;21.92
78932;BME280;68331;53.362;55.932;2023-06-14T07:48:34;100319.69;;;27.38;22.49
78932;BME280;68331;53.362;55.932;2023-06-14T07:51:01;100318.19;;;27.16;22.75
78932;BME280;68331;53.362;55.932;2023-06-14T07:53:27;100300.78;;;27.18;22.90
78932;BME280;68331;53.362;55.932;2023-06-14T07:55:52;100316.00;;;27.39;22.91
78932;BME280;68331;53.362;55.932;2023-06-14T07:58:19;100316.13;;;27.47;22.54
78932;BME280;68331;53.362;55.932;2023-06-14T08:00:44;100308.22;;;27.16;22.68
78932;BME280;68331;53.362;55.932;2023-06-14T08:03:11;100321.44;;;26.90;22.81
78932;BME280;68331;53.362;55.932;2023-06-14T08:05:37;100312.03;;;26.75;23.06
78932;BME280;68331;53.362;55.932;2023-06-14T08:08:03;100299.63;;;26.82;23.01
78932;BME280;68331;53.362;55.932;2023-06-14T08:10:29;100302.63;;;26.88;23.26
78932;BME280;68331;53.362;55.932;2023-06-14T08:12:55;100312.31;;;27.30;23.16
78932;BME280;68331;53.362;55.932;2023-06-14T08:15:21;100302.84;;;27.53;22.56
78932;BME280;68331;53.362;55.932;2023-06-14T08:17:48;100298.16;;;27.46;22.41
78932;BME280;68331;53.362;55.932;2023-06-14T08:20:14;100305.06;;;27.21;22.67
78932;BME280;68331;53.362;55.932;2023-06-14T08:22:42;100291.47;;;27.30;22.56
78932;BME280;68331;53.362;55.932;2023-06-14T08:25:08;100286.19;;;27.39;22.99
78932;BME280;68331;53.362;55.932;2023-06-14T08:27:35;100291.63;;;27.76;22.26
78932;BME280;68331;53.362;55.932;2023-06-14T08:30:01;100297.44;;;27.44;23.00
78932;BME280;68331;53.362;55.932;2023-06-14T08:32:30;100284.75;;;27.34;22.57
78932;BME280;68331;53.362;55.932;2023-06-14T08:34:56;100285.41;;;27.66;22.39
78932;BME280;68331;53.362;55.932;2023-06-14T08:37:22;100281.72;;;27.94;22.47
78932;BME280;68331;53.362;55.932;2023-06-14T08:39:47;100278.84;;;28.05;22.27
78932;BME280;68331;53.362;55.932;2023-06-14T08:42:14;100286.69;;;28.09;22.09
78932;BME280;68331;53.362;55.932;2023-06-14T08:44:41;100284.50;;;27.85;22.18
78932;BME280;68331;53.362;55.932;2023-06-14T08:47:07;100276.38;;;27.75;22.53
78932;BME280;68331;53.362;55.932;2023-06-14T08:49:37;100276.56;;;27.64;22.55
78932;BME280;68331;53.362;55.932;2023-06-14T08:52:05;100269.31;;;27.54;22.90
78932;BME280;68331;53.362;55.932;2023-06-14T08:54:34;100262.75;;;27.57;23.58
78932;BME280;68331;53.362;55.932;2023-06-14T08:57:12;100256.66;;;27.92;23.11
78932;BME280;68331;53.362;55.932;2023-06-14T08:59:47;100254.81;;;28.11;22.74
78932;BME280;68331;53.362;55.932;2023-06-14T09:02:15;100252.50;;;27.88;23.08
78932;BME280;68331;53.362;55.932;2023-06-14T09:04:43;100249.16;;;27.67;23.19
78932;BME280;68331;53.362;55.932;2023-06-14T09:07:10;100256.75;;;27.53;23.30
78932;BME280;68331;53.362;55.932;2023-06-14T09:09:42;100256.72;;;27.73;23.21
78932;BME280;68331;53.362;55.932;2023-06-14T09:12:10;100251.53;;;28.35;22.88
78932;BME280;68331;53.362;55.932;2023-06-14T09:14:38;100250.22;;;28.92;22.25
78932;BME280;68331;53.362;55.932;2023-06-14T09:17:06;100244.94;;;29.09;21.50
78932;BME280;68331;53.362;55.932;2023-06-14T09:19:33;100244.78;;;28.92;21.81
78932;BME280;68331;53.362;55.932;2023-06-14T09:21:59;100236.66;;;28.74;21.88
78932;BME280;68331;53.362;55.932;2023-06-14T09:24:25;100229.78;;;28.44;22.11
78932;BME280;68331;53.362;55.932;2023-06-14T09:26:52;100228.78;;;28.18;22.25
78932;BME280;68331;53.362;55.932;2023-06-14T09:29:18;100220.25;;;27.85;23.16
78932;BME280;68331;53.362;55.932;2023-06-14T09:31:47;100220.59;;;27.72;23.92
78932;BME280;68331;53.362;55.932;2023-06-14T09:34:13;100213.34;;;27.63;23.73
78932;BME280;68331;53.362;55.932;2023-06-14T09:36:42;100222.75;;;27.69;23.99
78932;BME280;68331;53.362;55.932;2023-06-14T09:39:08;100209.53;;;27.56;23.78
78932;BME280;68331;53.362;55.932;2023-06-14T09:44:03;100212.50;;;27.63;23.88
78932;BME280;68331;53.362;55.932;2023-06-14T09:46:30;100221.63;;;27.62;23.96
78932;BME280;68331;53.362;55.932;2023-06-14T09:48:59;100224.41;;;27.52;24.09
78932;BME280;68331;53.362;55.932;2023-06-14T09:51:27;100219.31;;;27.39;24.09
78932;BME280;68331;53.362;55.932;2023-06-14T09:54:00;100221.47;;;27.35;24.17
78932;BME280;68331;53.362;55.932;2023-06-14T09:56:41;100226.84;;;27.45;23.84
78932;BME280;68331;53.362;55.932;2023-06-14T09:59:12;100225.91;;;27.27;23.83
78932;BME280;68331;53.362;55.932;2023-06-14T10:01:42;100228.31;;;27.30;24.29
78932;BME280;68331;53.362;55.932;2023-06-14T10:04:10;100215.78;;;27.29;24.45
78932;BME280;68331;53.362;55.932;2023-06-14T10:06:37;100219.91;;;27.33;24.37
78932;BME280;68331;53.362;55.932;2023-06-14T10:09:08;100220.88;;;27.42;24.70
78932;BME280;68331;53.362;55.932;2023-06-14T10:11:35;100223.53;;;27.51;24.64
78932;BME280;68331;53.362;55.932;2023-06-14T10:14:05;100211.28;;;27.75;24.00
78932;BME280;68331;53.362;55.932;2023-06-14T10:16:36;100207.03;;;27.72;23.95
78932;BME280;68331;53.362;55.932;2023-06-14T10:19:17;100202.50;;;27.63;23.93
78932;BME280;68331;53.362;55.932;2023-06-14T10:21:58;100204.19;;;27.74;24.13
78932;BME280;68331;53.362;55.932;2023-06-14T10:24:30;100192.78;;;27.70;23.75
78932;BME280;68331;53.362;55.932;2023-06-14T10:26:59;100191.03;;;27.79;23.62
78932;BME280;68331;53.362;55.932;2023-06-14T10:29:26;100184.88;;;27.87;23.69
78932;BME280;68331;53.362;55.932;2023-06-14T10:31:56;100176.38;;;27.99;23.88
78932;BME280;68331;53.362;55.932;2023-06-14T10:34:24;100172.44;;;28.12;23.90
78932;BME280;68331;53.362;55.932;2023-06-14T10:37:12;100173.75;;;28.25;23.70
78932;BME280;68331;53.362;55.932;2023-06-14T10:39:43;100169.88;;;28.28;24.02
78932;BME280;68331;53.362;55.932;2023-06-14T10:42:12;100176.63;;;28.24;23.43
78932;BME280;68331;53.362;55.932;2023-06-14T10:44:59;100159.38;;;28.33;23.38
78932;BME280;68331;53.362;55.932;2023-06-14T10:47:27;100163.47;;;28.47;23.04
78932;BME280;68331;53.362;55.932;2023-06-14T10:50:11;100153.69;;;28.18;23.63
78932;BME280;68331;53.362;55.932;2023-06-14T10:52:42;100150.25;;;28.16;23.74
78932;BME280;68331;53.362;55.932;2023-06-14T11:00:27;100147.00;;;28.13;23.46
78932;BME280;68331;53.362;55.932;2023-06-14T11:05:58;100141.16;;;28.08;23.92
78932;BME280;68331;53.362;55.932;2023-06-14T11:11:07;100133.25;;;27.78;23.78
78932;BME280;68331;53.362;55.932;2023-06-14T11:13:37;100125.81;;;27.80;23.93
78932;BME280;68331;53.362;55.932;2023-06-14T11:16:10;100135.59;;;27.91;23.97
78932;BME280;68331;53.362;55.932;2023-06-14T11:18:36;100131.50;;;28.05;23.82
78932;BME280;68331;53.362;55.932;2023-06-14T11:21:02;100109.88;;;27.95;23.83
78932;BME280;68331;53.362;55.932;2023-06-14T11:23:28;100125.03;;;27.88;24.22
78932;BME280;68331;53.362;55.932;2023-06-14T11:25:55;100120.56;;;27.69;24.52
78932;BME280;68331;53.362;55.932;2023-06-14T11:28:21;100120.13;;;27.46;24.67
78932;BME280;68331;53.362;55.932;2023-06-14T11:30:59;100118.31;;;27.37;25.18
78932;BME280;68331;53.362;55.932;2023-06-14T11:33:26;100120.63;;;27.59;24.62
78932;BME280;68331;53.362;55.932;2023-06-14T11:35:52;100104.19;;;27.89;23.88
78932;BME280;68331;53.362;55.932;2023-06-14T11:38:18;100113.38;;;28.05;24.16
78932;BME280;68331;53.362;55.932;2023-06-14T11:40:44;100118.56;;;27.99;24.21
78932;BME280;68331;53.362;55.932;2023-06-14T11:43:10;100122.13;;;27.99;24.30
78932;BME280;68331;53.362;55.932;2023-06-14T11:45:35;100114.50;;;27.85;24.21
78932;BME280;68331;53.362;55.932;2023-06-14T11:48:02;100101.56;;;27.79;23.91
78932;BME280;68331;53.362;55.932;2023-06-14T11:50:28;100100.25;;;27.83;23.96
78932;BME280;68331;53.362;55.932;2023-06-14T11:52:55;100105.69;;;27.83;24.01
78932;BME280;68331;53.362;55.932;2023-06-14T11:55:23;100098.56;;;28.00;23.89
78932;BME280;68331;53.362;55.932;2023-06-14T11:57:49;100095.13;;;28.51;23.97
78932;BME280;68331;53.362;55.932;2023-06-14T12:00:16;100096.25;;;28.41;23.48
78932;BME280;68331;53.362;55.932;2023-06-14T12:02:51;100087.53;;;28.19;23.55
78932;BME280;68331;53.362;55.932;2023-06-14T12:05:20;100085.28;;;27.79;23.86
78932;BME280;68331;53.362;55.932;2023-06-14T12:07:47;100084.09;;;27.64;24.32
78932;BME280;68331;53.362;55.932;2023-06-14T12:10:14;100078.09;;;27.88;24.44
78932;BME280;68331;53.362;55.932;2023-06-14T12:12:40;100078.94;;;28.24;23.86
78932;BME280;68331;53.362;55.932;2023-06-14T12:15:08;100084.47;;;28.58;23.50
78932;BME280;68331;53.362;55.932;2023-06-14T12:17:35;100081.84;;;28.48;23.58
78932;BME280;68331;53.362;55.932;2023-06-14T12:20:11;100076.38;;;28.04;23.92
78932;BME280;68331;53.362;55.932;2023-06-14T12:22:52;100069.34;;;27.94;24.13
78932;BME280;68331;53.362;55.932;2023-06-14T12:25:31;100067.72;;;27.83;24.47
78932;BME280;68331;53.362;55.932;2023-06-14T12:27:59;100065.19;;;27.54;24.39
78932;BME280;68331;53.362;55.932;2023-06-14T12:30:25;100056.97;;;27.46;24.51
78932;BME280;68331;53.362;55.932;2023-06-14T12:32:51;100058.59;;;27.39;25.10
78932;BME280;68331;53.362;55.932;2023-06-14T12:35:18;100058.88;;;27.35;25.33
78932;BME280;68331;53.362;55.932;2023-06-14T12:37:45;100066.06;;;27.27;25.59
78932;BME280;68331;53.362;55.932;2023-06-14T12:40:12;100063.00;;;27.02;26.56
78932;BME280;68331;53.362;55.932;2023-06-14T12:42:38;100057.56;;;26.75;26.36
78932;BME280;68331;53.362;55.932;2023-06-14T12:45:04;100063.03;;;26.55;26.87
78932;BME280;68331;53.362;55.932;2023-06-14T12:47:31;100058.22;;;26.49;26.74
78932;BME280;68331;53.362;55.932;2023-06-14T12:49:56;100061.47;;;26.43;26.84
78932;BME280;68331;53.362;55.932;2023-06-14T12:52:22;100058.47;;;26.46;26.55
78932;BME280;68331;53.362;55.932;2023-06-14T12:54:49;100062.03;;;26.56;26.85
78932;BME280;68331;53.362;55.932;2023-06-14T12:57:15;100045.78;;;26.56;26.71
78932;BME280;68331;53.362;55.932;2023-06-14T12:59:41;100052.22;;;26.55;26.68
78932;BME280;68331;53.362;55.932;2023-06-14T13:02:14;100042.25;;;26.56;26.69
78932;BME280;68331;53.362;55.932;2023-06-14T13:04:41;100051.53;;;26.90;26.28